createdAt,value
2023-05-20T00:01:26.464Z,187.88
2023-05-20T00:03:54.221Z,180.98
2023-05-20T00:06:22.048Z,195.30
2023-05-20T00:08:49.746Z,189.55
2023-05-20T00:11:17.331Z,184.93
2023-05-20T00:13:48.201Z,193.35
2023-05-20T00:16:18.898Z,187.93
2023-05-20T00:18:46.645Z,202.50
2023-05-20T00:21:14.267Z,198.15
2023-05-20T00:23:42.099Z,202.02
2023-05-20T00:26:09.752Z,203.93
2023-05-20T00:28:37.179Z,184.65
2023-05-20T00:31:05.016Z,185.95
2023-05-20T00:33:32.492Z,203.48
2023-05-20T00:36:00.155Z,195.55
2023-05-20T00:38:27.840Z,194.45
2023-05-20T00:40:56.864Z,195.57
2023-05-20T00:43:25.549Z,189.65
2023-05-20T00:45:57.151Z,188.50
2023-05-20T00:48:25.095Z,203.90
2023-05-20T00:50:53.008Z,193.23
2023-05-20T00:53:21.504Z,186.77
2023-05-20T00:55:49.095Z,186.23
2023-05-20T00:58:17.137Z,189.38
2023-05-20T01:00:44.710Z,187.73
2023-05-20T01:03:12.928Z,189.55
2023-05-20T01:05:42.383Z,186.82
2023-05-20T01:08:10.261Z,186.23
2023-05-20T01:10:42.280Z,182.80
2023-05-20T01:13:15.313Z,191.63
2023-05-20T01:15:48.529Z,190.57
2023-05-20T01:18:26.711Z,199.68
2023-05-20T01:20:56.213Z,197.25
2023-05-20T01:23:23.814Z,204.18
2023-05-20T01:25:51.282Z,194.15
2023-05-20T01:28:19.458Z,198.95
2023-05-20T01:30:55.554Z,205.25
2023-05-20T01:33:25.638Z,200.95
2023-05-20T01:35:54.014Z,208.27
2023-05-20T01:38:24.047Z,193.85
2023-05-20T01:40:52.682Z,190.43
2023-05-20T01:43:21.515Z,200.10
2023-05-20T01:45:49.186Z,176.38
2023-05-20T01:48:17.051Z,206.48
2023-05-20T01:50:47.102Z,211.40
2023-05-20T01:53:14.827Z,207.63
2023-05-20T01:55:42.672Z,204.05
2023-05-20T01:58:10.177Z,203.68
2023-05-20T02:00:38.032Z,201.93
2023-05-20T02:03:05.713Z,203.27
2023-05-20T02:05:33.521Z,206.32
2023-05-20T02:08:04.418Z,203.23
2023-05-20T02:10:31.950Z,210.27
2023-05-20T02:12:59.450Z,188.90
2023-05-20T02:15:27.274Z,195.05
2023-05-20T02:17:55.104Z,193.23
2023-05-20T02:20:27.182Z,210.55
2023-05-20T02:22:54.953Z,207.90
2023-05-20T02:25:22.421Z,205.35
2023-05-20T02:27:49.949Z,197.15
2023-05-20T02:30:17.494Z,197.57
2023-05-20T02:32:45.117Z,217.70
2023-05-20T02:35:12.901Z,206.73
2023-05-20T02:37:40.748Z,205.65
2023-05-20T02:40:09.525Z,199.15
2023-05-20T02:42:38.762Z,206.82
2023-05-20T02:45:07.508Z,221.80
2023-05-20T02:47:35.272Z,186.02
2023-05-20T02:50:03.283Z,191.18
2023-05-20T02:52:30.818Z,196.95
2023-05-20T02:54:58.855Z,205.10
2023-05-20T02:57:28.621Z,217.65
2023-05-20T02:59:59.179Z,211.48
2023-05-20T03:02:26.966Z,202.55
2023-05-20T03:04:54.969Z,211.23
2023-05-20T03:07:22.757Z,212.40
2023-05-20T03:09:50.179Z,208.57
2023-05-20T03:12:18.927Z,210.55
2023-05-20T03:14:46.413Z,222.63
2023-05-20T03:17:14.167Z,212.02
2023-05-20T03:19:44.037Z,205.30
2023-05-20T03:22:11.908Z,214.13
2023-05-20T03:24:39.461Z,207.48
2023-05-20T03:27:07.193Z,216.20
2023-05-20T03:29:36.393Z,230.77
2023-05-20T03:32:04.232Z,228.90
2023-05-20T03:34:32.088Z,203.95
2023-05-20T03:37:03.976Z,208.23
2023-05-20T03:39:34.389Z,196.27
2023-05-20T03:42:02.913Z,216.02
2023-05-20T03:44:30.423Z,193.05
2023-05-20T03:46:57.951Z,203.15
2023-05-20T03:49:25.611Z,205.40
2023-05-20T03:51:56.208Z,201.07
2023-05-20T03:54:23.777Z,187.70
2023-05-20T03:56:53.071Z,189.38
2023-05-20T03:59:22.448Z,198.32
2023-05-20T04:01:50.210Z,195.13
2023-05-20T04:04:17.827Z,193.30
2023-05-20T04:06:46.331Z,201.38
2023-05-20T04:09:15.000Z,194.70
2023-05-20T04:11:42.789Z,194.93
2023-05-20T04:14:11.357Z,182.20
2023-05-20T04:16:39.503Z,183.82
2023-05-20T04:19:07.458Z,175.88
2023-05-20T04:21:35.162Z,176.05
2023-05-20T04:24:05.824Z,184.27
2023-05-20T04:26:33.999Z,175.65
2023-05-20T04:29:04.421Z,190.90
2023-05-20T04:31:33.926Z,189.13
2023-05-20T04:34:02.821Z,198.90
2023-05-20T04:36:31.212Z,189.57
2023-05-20T04:38:59.504Z,196.70
2023-05-20T04:41:27.434Z,182.98
2023-05-20T04:43:59.951Z,179.88
2023-05-20T04:46:27.645Z,170.50
2023-05-20T04:48:55.676Z,188.50
2023-05-20T04:51:23.433Z,190.27
2023-05-20T04:53:53.901Z,169.85
2023-05-20T04:56:21.648Z,175.38
2023-05-20T04:58:49.132Z,182.57
2023-05-20T05:01:16.941Z,176.02
2023-05-20T05:03:44.642Z,180.18
2023-05-20T05:06:12.210Z,179.60
2023-05-20T05:08:39.779Z,196.07
2023-05-20T05:11:07.597Z,185.50
2023-05-20T05:13:35.146Z,162.07
2023-05-20T05:16:03.738Z,169.20
2023-05-20T05:18:32.912Z,168.43
2023-05-20T05:21:05.055Z,171.73
2023-05-20T05:23:36.090Z,173.55
2023-05-20T05:26:04.067Z,180.43
2023-05-20T05:28:31.578Z,169.13
2023-05-20T05:30:59.715Z,170.10
2023-05-20T05:33:27.352Z,152.15
2023-05-20T05:35:59.329Z,164.48
2023-05-20T05:38:27.568Z,162.73
2023-05-20T05:40:58.620Z,174.10
2023-05-20T05:43:26.143Z,161.30
2023-05-20T05:45:54.346Z,171.30
2023-05-20T05:48:25.873Z,165.90
2023-05-20T05:50:53.459Z,182.25
2023-05-20T05:53:22.226Z,163.55
2023-05-20T05:55:50.286Z,173.65
2023-05-20T05:58:18.718Z,178.88
2023-05-20T06:00:46.799Z,183.95
2023-05-20T06:03:14.844Z,162.85
2023-05-20T06:05:54.491Z,164.90
2023-05-20T06:08:22.055Z,179.75
2023-05-20T06:10:50.344Z,175.70
2023-05-20T06:13:18.646Z,154.75
2023-05-20T06:15:46.517Z,174.27
2023-05-20T06:18:14.056Z,165.55
2023-05-20T06:20:41.724Z,166.45
2023-05-20T06:23:09.410Z,152.60
2023-05-20T06:26:01.231Z,161.70
2023-05-20T06:28:30.798Z,146.27
2023-05-20T06:30:58.537Z,154.95
2023-05-20T06:33:28.705Z,154.38
2023-05-20T06:36:02.034Z,141.95
2023-05-20T06:38:32.037Z,139.68
2023-05-20T06:40:59.589Z,150.20
2023-05-20T06:43:27.564Z,141.80
2023-05-20T06:46:04.930Z,143.80
2023-05-20T06:48:42.541Z,145.90
2023-05-20T06:51:13.281Z,141.68
2023-05-20T06:56:09.360Z,122.80
2023-05-20T06:58:37.626Z,134.43
2023-05-20T07:01:05.748Z,126.03
2023-05-20T07:03:33.784Z,137.82
2023-05-20T07:06:01.359Z,123.50
2023-05-20T07:08:29.258Z,134.27
2023-05-20T07:10:57.349Z,138.95
2023-05-20T07:13:26.440Z,135.25
2023-05-20T07:15:54.117Z,144.15
2023-05-20T07:18:21.967Z,126.05
2023-05-20T07:20:53.775Z,141.25
2023-05-20T07:23:47.502Z,127.28
2023-05-20T07:28:45.766Z,121.80
2023-05-20T07:31:13.432Z,140.02
2023-05-20T07:33:45.342Z,124.50
2023-05-20T07:36:13.222Z,134.65
2023-05-20T07:38:53.073Z,131.93
2023-05-20T07:41:30.634Z,134.82
2023-05-20T07:43:58.515Z,128.80
2023-05-20T07:46:26.545Z,138.98
2023-05-20T07:48:54.088Z,128.25
2023-05-20T07:51:21.766Z,138.60
2023-05-20T07:53:49.810Z,123.82
2023-05-20T07:56:17.948Z,128.18
2023-05-20T07:58:53.825Z,132.38
2023-05-20T08:01:22.292Z,130.23
2023-05-20T08:03:50.838Z,128.15
2023-05-20T08:06:22.000Z,129.07
2023-05-20T08:08:50.218Z,129.00
2023-05-20T08:11:24.304Z,130.43
2023-05-20T08:13:53.047Z,132.50
2023-05-20T08:16:25.356Z,128.25
2023-05-20T08:18:53.433Z,129.90
2023-05-20T08:21:25.158Z,128.35
2023-05-20T08:23:52.703Z,140.52
2023-05-20T08:26:20.311Z,133.98
2023-05-20T08:28:48.704Z,141.60
2023-05-20T08:31:20.366Z,141.20
2023-05-20T08:33:47.975Z,149.13
2023-05-20T08:36:16.469Z,122.47
2023-05-20T08:38:44.670Z,137.30
2023-05-20T08:41:12.882Z,137.13
2023-05-20T08:43:44.775Z,148.30
2023-05-20T08:46:12.798Z,123.68
2023-05-20T08:48:40.525Z,122.13
2023-05-20T08:51:11.330Z,133.88
2023-05-20T08:53:42.431Z,126.25
2023-05-20T08:56:11.705Z,126.43
2023-05-20T08:58:39.303Z,141.02
2023-05-20T09:01:07.998Z,138.65
2023-05-20T09:03:35.583Z,142.40
2023-05-20T09:06:09.172Z,135.38
2023-05-20T09:08:37.440Z,128.80
2023-05-20T09:11:05.114Z,126.45
2023-05-20T09:13:35.391Z,126.43
2023-05-20T09:16:03.587Z,131.23
2023-05-20T09:18:31.651Z,132.73
2023-05-20T09:21:06.902Z,135.07
2023-05-20T09:23:38.369Z,133.00
2023-05-20T09:26:06.335Z,130.95
2023-05-20T09:28:36.159Z,130.32
2023-05-20T09:31:05.722Z,142.32
2023-05-20T09:33:35.747Z,131.35
2023-05-20T09:36:10.279Z,135.25
2023-05-20T09:38:39.985Z,131.82
2023-05-20T09:41:11.682Z,131.90
2023-05-20T09:43:40.943Z,125.13
2023-05-20T09:46:10.095Z,141.07
2023-05-20T09:48:37.951Z,143.35
2023-05-20T09:51:07.331Z,138.40
2023-05-20T09:53:36.311Z,132.82
2023-05-20T09:56:04.389Z,130.32
2023-05-20T09:58:35.850Z,145.27
2023-05-20T10:01:03.992Z,139.90
2023-05-20T10:03:33.602Z,133.27
2023-05-20T10:06:46.480Z,143.95
2023-05-20T10:09:42.915Z,133.10
2023-05-20T10:12:48.168Z,138.13
2023-05-20T10:15:38.783Z,130.60
2023-05-20T10:18:35.129Z,136.15
2023-05-20T10:21:02.731Z,126.88
2023-05-20T10:23:31.354Z,143.40
2023-05-20T10:25:59.201Z,146.98
2023-05-20T10:28:33.084Z,134.80
2023-05-20T10:31:01.233Z,123.70
2023-05-20T10:33:30.013Z,126.82
2023-05-20T10:36:01.221Z,138.98
2023-05-20T10:38:28.795Z,134.82
2023-05-20T10:40:57.512Z,133.60
2023-05-20T10:43:29.046Z,129.55
2023-05-20T10:45:58.396Z,135.77
2023-05-20T10:48:34.286Z,143.73
2023-05-20T10:51:06.616Z,138.30
2023-05-20T10:53:41.635Z,143.80
2023-05-20T10:56:19.751Z,136.88
2023-05-20T10:58:48.002Z,135.43
2023-05-20T11:01:20.104Z,140.52
2023-05-20T11:03:49.386Z,146.75
2023-05-20T11:06:26.157Z,135.52
2023-05-20T11:08:53.783Z,149.40
2023-05-20T11:11:26.662Z,137.20
2023-05-20T11:13:57.470Z,131.75
2023-05-20T11:16:25.535Z,134.63
2023-05-20T11:18:53.311Z,142.20
2023-05-20T11:21:20.971Z,142.20
2023-05-20T11:23:52.114Z,139.73
2023-05-20T11:26:21.427Z,151.30
2023-05-20T11:28:52.020Z,136.73
2023-05-20T11:31:19.601Z,145.73
2023-05-20T11:33:47.140Z,153.85
2023-05-20T11:36:27.450Z,142.80
2023-05-20T11:38:58.773Z,144.63
2023-05-20T11:41:28.132Z,134.52
2023-05-20T11:43:58.539Z,142.30
2023-05-20T11:46:26.437Z,136.57
2023-05-20T11:48:55.203Z,147.80
2023-05-20T11:51:29.569Z,136.40
2023-05-20T11:54:04.157Z,137.80
2023-05-20T11:56:37.255Z,149.45
2023-05-20T11:59:09.791Z,149.93
2023-05-20T12:01:44.146Z,155.70
2023-05-20T12:04:13.890Z,133.23
2023-05-20T12:06:43.338Z,143.45
2023-05-20T12:09:11.562Z,143.48
2023-05-20T12:11:41.680Z,138.70
2023-05-20T12:14:09.806Z,135.63
2023-05-20T12:16:38.174Z,144.65
2023-05-20T12:19:05.990Z,140.55
2023-05-20T12:21:33.556Z,138.75
2023-05-20T12:24:01.276Z,143.27
2023-05-20T12:26:29.764Z,150.93
2023-05-20T12:28:57.722Z,136.80
2023-05-20T12:31:26.126Z,130.77
2023-05-20T12:33:53.633Z,146.40
2023-05-20T12:36:21.586Z,141.75
2023-05-20T12:38:49.277Z,137.48
2023-05-20T12:41:18.649Z,139.52
2023-05-20T12:43:46.101Z,148.25
2023-05-20T12:46:13.730Z,145.68
2023-05-20T12:48:42.547Z,144.20
2023-05-20T12:51:10.258Z,137.25
2023-05-20T12:53:37.747Z,152.82
2023-05-20T12:56:06.194Z,134.77
2023-05-20T12:58:34.822Z,147.82
2023-05-20T13:01:05.540Z,136.23
2023-05-20T13:03:33.294Z,136.00
2023-05-20T13:06:00.962Z,135.75
2023-05-20T13:08:28.863Z,138.88
2023-05-20T13:10:56.498Z,136.93
2023-05-20T13:13:24.584Z,144.45
2023-05-20T13:15:55.123Z,146.88
2023-05-20T13:18:22.724Z,138.48
2023-05-20T13:20:50.608Z,133.50
2023-05-20T13:23:18.195Z,148.98
2023-05-20T13:25:45.621Z,135.25
2023-05-20T13:28:16.715Z,134.93
2023-05-20T13:30:44.544Z,141.15
